createdAt,value
2019-01-31T00:01:49.368Z,-1.10
2019-01-31T00:04:48.353Z,-1.10
2019-01-31T00:08:00.368Z,-1.10
2019-01-31T00:10:56.811Z,-1.10
2019-01-31T00:13:56.488Z,-1.20
2019-01-31T00:17:00.339Z,-1.20
2019-01-31T00:19:34.857Z,-1.30
2019-01-31T00:22:46.924Z,-1.30
2019-01-31T00:26:14.561Z,-1.30
2019-01-31T00:29:14.418Z,-1.30
2019-01-31T00:32:00.521Z,-1.40
2019-01-31T00:35:12.781Z,-1.40
2019-01-31T00:38:29.089Z,-1.40
2019-01-31T00:41:52.340Z,-1.40
2019-01-31T00:45:01.070Z,-1.50
2019-01-31T00:47:53.493Z,-1.40
2019-01-31T00:50:35.564Z,-1.40
2019-01-31T00:53:45.703Z,-1.40
2019-01-31T00:56:37.989Z,-1.50
2019-01-31T00:59:46.005Z,-1.50
2019-01-31T01:02:26.570Z,-1.50
2019-01-31T01:05:24.888Z,-1.50
2019-01-31T01:08:24.184Z,-1.50
2019-01-31T01:11:31.508Z,-1.40
2019-01-31T01:14:38.013Z,-1.40
2019-01-31T01:17:48.185Z,-1.40
2019-01-31T01:21:10.421Z,-1.30
2019-01-31T01:23:50.741Z,-1.30
2019-01-31T01:27:10.203Z,-1.30
2019-01-31T01:30:08.873Z,-1.30
2019-01-31T01:32:58.822Z,-1.30
2019-01-31T01:35:58.297Z,-1.40
2019-01-31T01:39:03.998Z,-1.40
2019-01-31T01:41:56.560Z,-1.50
2019-01-31T01:45:21.749Z,-1.50
2019-01-31T01:48:16.979Z,-1.50
2019-01-31T01:51:07.085Z,-1.50
2019-01-31T01:53:53.401Z,-1.60
2019-01-31T01:57:08.394Z,-1.60
2019-01-31T02:00:13.271Z,-1.60
2019-01-31T02:03:41.209Z,-1.60
2019-01-31T02:06:27.441Z,-1.70
2019-01-31T02:09:17.573Z,-1.70
2019-01-31T02:12:13.964Z,-1.70
2019-01-31T02:15:30.209Z,-1.70
2019-01-31T02:18:17.924Z,-1.70
2019-01-31T02:21:39.364Z,-1.80
2019-01-31T02:24:36.457Z,-1.80
2019-01-31T02:27:45.880Z,-1.70
2019-01-31T02:30:53.144Z,-1.70
2019-01-31T02:33:54.165Z,-1.70
2019-01-31T02:37:00.121Z,-1.70
2019-01-31T02:40:07.847Z,-1.70
2019-01-31T02:43:16.386Z,-1.70
2019-01-31T02:46:32.280Z,-1.70
2019-01-31T02:49:48.210Z,-1.70
2019-01-31T02:52:58.429Z,-1.70
2019-01-31T02:56:05.838Z,-1.70
2019-01-31T02:58:57.293Z,-1.80
2019-01-31T03:01:57.430Z,-1.80
2019-01-31T03:05:03.821Z,-1.80
2019-01-31T03:07:57.801Z,-1.70
2019-01-31T03:10:51.838Z,-1.80
2019-01-31T03:13:38.321Z,-1.80
2019-01-31T03:16:37.332Z,-1.80
2019-01-31T03:20:02.081Z,-1.80
2019-01-31T03:23:12.096Z,-1.80
2019-01-31T03:26:10.513Z,-1.80
2019-01-31T03:29:11.213Z,-1.70
2019-01-31T03:32:18.078Z,-1.80
2019-01-31T03:35:25.673Z,-1.80
2019-01-31T03:38:16.374Z,-1.80
2019-01-31T03:41:15.213Z,-1.80
2019-01-31T03:43:56.407Z,-1.90
2019-01-31T03:47:05.945Z,-1.80
2019-01-31T03:50:17.985Z,-1.80
2019-01-31T03:53:32.028Z,-1.70
2019-01-31T03:56:48.452Z,-1.70
2019-01-31T03:59:44.752Z,-1.70
2019-01-31T04:03:00.908Z,-1.60
2019-01-31T04:05:37.392Z,-1.50
2019-01-31T04:08:06.837Z,-1.40
2019-01-31T04:10:35.822Z,-1.40
2019-01-31T04:13:05.416Z,-1.30
2019-01-31T04:15:34.687Z,-1.30
2019-01-31T04:18:03.962Z,-1.20
2019-01-31T04:20:32.997Z,-1.20
2019-01-31T04:23:01.979Z,-1.00
2019-01-31T04:25:30.829Z,-0.90
2019-01-31T04:27:59.824Z,-0.90
2019-01-31T04:30:28.810Z,-0.90
2019-01-31T04:32:57.640Z,-0.70
2019-01-31T04:35:26.968Z,-0.70
2019-01-31T04:37:56.504Z,-0.70
2019-01-31T04:40:31.573Z,-0.60
2019-01-31T04:42:56.138Z,-0.50
2019-01-31T04:45:25.124Z,-0.40
2019-01-31T04:47:56.290Z,-0.30
2019-01-31T04:50:25.764Z,-0.30
2019-01-31T04:52:54.693Z,0.00
2019-01-31T04:55:23.672Z,0.10
2019-01-31T04:57:52.680Z,0.10
2019-01-31T05:00:21.652Z,0.20
2019-01-31T05:02:50.645Z,0.30
2019-01-31T05:05:19.645Z,0.40
2019-01-31T05:07:48.622Z,0.40
2019-01-31T05:10:17.629Z,0.40
2019-01-31T05:12:46.650Z,0.40
2019-01-31T05:15:15.661Z,0.40
2019-01-31T05:17:44.749Z,0.40
2019-01-31T05:20:16.058Z,0.40
2019-01-31T05:22:45.101Z,0.50
2019-01-31T05:25:15.122Z,0.50
2019-01-31T05:27:44.133Z,0.50
2019-01-31T05:30:14.644Z,0.60
2019-01-31T05:32:43.629Z,0.60
2019-01-31T05:35:12.929Z,0.70
2019-01-31T05:37:41.909Z,0.70
2019-01-31T05:40:12.976Z,0.80
2019-01-31T05:42:41.978Z,0.80
2019-01-31T05:45:13.223Z,0.80
2019-01-31T05:47:42.146Z,0.80
2019-01-31T05:50:13.466Z,0.80
2019-01-31T05:52:42.438Z,0.80
2019-01-31T05:55:12.045Z,0.80
2019-01-31T05:57:41.179Z,0.80
2019-01-31T06:00:13.825Z,0.90
2019-01-31T06:02:42.800Z,0.90
2019-01-31T06:05:12.177Z,0.90
2019-01-31T06:07:41.155Z,0.90
2019-01-31T06:10:10.617Z,0.90
2019-01-31T06:12:39.536Z,1.00
2019-01-31T06:15:11.678Z,1.00
2019-01-31T06:17:40.581Z,1.00
2019-01-31T06:20:11.214Z,1.00
2019-01-31T06:22:40.123Z,1.00
2019-01-31T06:25:09.103Z,1.00
2019-01-31T06:27:38.342Z,1.10
2019-01-31T06:30:08.204Z,1.10
2019-01-31T06:32:37.100Z,1.10
2019-01-31T06:35:07.016Z,0.90
2019-01-31T06:37:35.993Z,0.90
2019-01-31T06:40:06.865Z,1.10
2019-01-31T06:42:35.789Z,1.10
2019-01-31T06:45:06.653Z,1.00
2019-01-31T06:47:35.561Z,1.10
2019-01-31T06:50:05.326Z,1.00
2019-01-31T06:52:34.236Z,1.00
2019-01-31T06:55:03.320Z,1.00
2019-01-31T06:57:32.254Z,1.00
2019-01-31T07:00:01.157Z,1.00
2019-01-31T07:02:30.137Z,1.10
2019-01-31T07:04:58.993Z,1.10
2019-01-31T07:07:27.978Z,1.20
2019-01-31T07:09:56.884Z,1.20
2019-01-31T07:12:25.729Z,1.20
2019-01-31T07:14:54.701Z,1.20
2019-01-31T07:17:23.609Z,1.20
2019-01-31T07:19:52.540Z,1.20
2019-01-31T07:22:21.517Z,1.20
2019-01-31T07:24:50.486Z,1.20
2019-01-31T07:27:19.526Z,1.30
2019-01-31T07:29:48.527Z,1.40
2019-01-31T07:32:17.544Z,1.40
2019-01-31T07:34:46.461Z,1.40
2019-01-31T07:37:15.429Z,1.40
2019-01-31T07:39:44.338Z,1.40
2019-01-31T07:42:13.258Z,1.30
2019-01-31T07:44:42.303Z,1.40
2019-01-31T07:47:11.208Z,1.40
2019-01-31T07:49:40.048Z,1.40
2019-01-31T07:52:09.030Z,1.50
2019-01-31T07:54:38.201Z,1.50
2019-01-31T07:57:07.280Z,1.50
2019-01-31T07:59:36.115Z,1.50
2019-01-31T08:02:05.215Z,1.40
2019-01-31T08:04:34.069Z,1.50
2019-01-31T08:07:03.049Z,1.50
2019-01-31T08:09:31.952Z,1.50
2019-01-31T08:12:00.952Z,1.60
2019-01-31T08:14:29.781Z,1.60
2019-01-31T08:16:58.685Z,1.60
2019-01-31T08:19:27.605Z,1.70
2019-01-31T08:21:56.799Z,1.70
2019-01-31T08:24:25.696Z,1.70
2019-01-31T08:26:55.985Z,1.70
2019-01-31T08:29:25.164Z,1.70
2019-01-31T08:31:54.169Z,1.80
2019-01-31T08:34:23.107Z,1.80
2019-01-31T08:36:52.085Z,1.80
2019-01-31T08:39:20.921Z,1.80
2019-01-31T08:41:49.923Z,1.90
2019-01-31T08:44:18.756Z,1.90
2019-01-31T08:46:47.672Z,1.90
2019-01-31T08:49:16.624Z,1.90
2019-01-31T08:51:45.525Z,1.90
2019-01-31T08:54:14.437Z,1.90
2019-01-31T08:56:43.438Z,2.00
2019-01-31T08:59:12.421Z,2.00
2019-01-31T09:01:41.400Z,2.00
2019-01-31T09:04:10.401Z,2.10
2019-01-31T09:06:39.389Z,2.10
2019-01-31T09:09:11.392Z,2.20
2019-01-31T09:11:40.395Z,2.20
2019-01-31T09:14:09.402Z,2.30
2019-01-31T09:16:38.357Z,2.30
2019-01-31T09:19:07.407Z,2.30
2019-01-31T09:22:34.753Z,2.40
2019-01-31T09:25:55.805Z,2.60
2019-01-31T09:28:47.456Z,2.60
2019-01-31T09:32:00.965Z,2.70
2019-01-31T09:34:58.104Z,2.80
2019-01-31T09:37:59.584Z,2.90
2019-01-31T09:40:53.577Z,3.00
2019-01-31T09:44:09.687Z,3.20
2019-01-31T09:47:47.189Z,3.40
2019-01-31T09:50:38.693Z,3.80
2019-01-31T09:53:39.684Z,4.10
2019-01-31T09:56:57.548Z,4.30
2019-01-31T09:59:41.189Z,4.40
2019-01-31T10:02:46.577Z,5.40
2019-01-31T10:05:54.020Z,6.30
2019-01-31T10:09:09.489Z,7.40
2019-01-31T10:12:18.644Z,8.00
2019-01-31T10:15:12.270Z,8.20
2019-01-31T10:18:00.257Z,8.40
2019-01-31T10:21:09.831Z,8.80
2019-01-31T10:24:31.808Z,9.40
2019-01-31T10:27:50.841Z,9.40
2019-01-31T10:31:07.069Z,9.70
2019-01-31T10:34:01.650Z,9.30
2019-01-31T10:36:47.278Z,9.60
2019-01-31T10:40:10.105Z,10.00
2019-01-31T10:43:22.234Z,10.10
2019-01-31T10:46:17.718Z,10.10
2019-01-31T10:49:42.810Z,10.00
2019-01-31T10:52:50.805Z,9.70
2019-01-31T10:56:10.043Z,9.30
2019-01-31T10:59:13.840Z,8.70
2019-01-31T11:02:07.126Z,8.70
2019-01-31T11:05:04.429Z,8.70
2019-01-31T11:07:50.338Z,8.60
2019-01-31T11:10:41.569Z,8.50
2019-01-31T11:13:54.182Z,8.40
2019-01-31T11:16:54.525Z,8.10
2019-01-31T11:19:54.834Z,7.80
2019-01-31T11:23:15.445Z,7.40
2019-01-31T11:26:09.652Z,7.50
2019-01-31T11:29:29.978Z,7.70
2019-01-31T11:32:38.619Z,7.50
2019-01-31T11:35:41.233Z,7.60
2019-01-31T11:38:33.476Z,7.70
2019-01-31T11:41:40.029Z,7.60
2019-01-31T11:44:33.993Z,7.60
2019-01-31T11:47:47.056Z,7.60
2019-01-31T11:51:00.694Z,7.50
2019-01-31T11:53:47.522Z,7.40
2019-01-31T11:57:05.571Z,7.10
2019-01-31T11:59:32.594Z,7.10
2019-01-31T12:02:01.734Z,6.90
2019-01-31T12:04:30.726Z,6.80
2019-01-31T12:06:59.797Z,6.80
2019-01-31T12:09:29.102Z,6.90
2019-01-31T12:11:58.191Z,6.80
2019-01-31T12:14:27.182Z,6.80
2019-01-31T12:16:56.245Z,6.70
2019-01-31T12:19:25.282Z,6.70
2019-01-31T12:21:54.471Z,6.70
2019-01-31T12:24:23.452Z,6.60
2019-01-31T12:26:52.752Z,6.60
2019-01-31T12:29:22.374Z,6.70
2019-01-31T12:31:51.742Z,6.70
2019-01-31T12:34:20.786Z,6.80
2019-01-31T12:36:50.492Z,6.60
2019-01-31T12:39:19.518Z,6.60
2019-01-31T12:41:48.678Z,6.60
2019-01-31T12:44:17.699Z,6.60
2019-01-31T12:46:46.890Z,6.50
2019-01-31T12:49:16.318Z,6.40
2019-01-31T12:51:45.371Z,6.50
2019-01-31T12:54:14.419Z,6.50
2019-01-31T12:56:43.651Z,6.40
2019-01-31T12:59:12.673Z,6.50
2019-01-31T13:01:41.735Z,6.40
2019-01-31T13:04:10.962Z,6.40
2019-01-31T13:06:40.062Z,6.30
2019-01-31T13:09:10.500Z,6.30
2019-01-31T13:11:39.653Z,6.30
2019-01-31T13:14:08.814Z,6.40
2019-01-31T13:16:37.878Z,6.20
2019-01-31T13:19:06.871Z,6.10
2019-01-31T13:21:35.920Z,6.10
2019-01-31T13:24:05.792Z,6.20
2019-01-31T13:26:34.990Z,6.10
2019-01-31T13:29:04.072Z,6.20
2019-01-31T13:32:06.600Z,6.20
2019-01-31T13:34:35.602Z,6.30
2019-01-31T13:37:05.397Z,6.20
2019-01-31T13:39:36.327Z,6.30
2019-01-31T13:42:05.892Z,6.20
2019-01-31T13:44:35.754Z,6.30
2019-01-31T13:47:08.727Z,6.30
2019-01-31T13:49:38.073Z,6.40
2019-01-31T13:52:07.948Z,6.40
2019-01-31T13:54:41.147Z,6.40
2019-01-31T13:57:11.869Z,6.50
2019-01-31T13:59:43.629Z,6.40
2019-01-31T14:02:13.441Z,6.30
2019-01-31T14:04:43.239Z,6.20
2019-01-31T14:07:13.130Z,6.30
2019-01-31T14:09:42.821Z,6.30
2019-01-31T14:12:13.063Z,6.30
2019-01-31T14:14:43.046Z,6.40
2019-01-31T14:17:12.493Z,6.50
2019-01-31T14:19:42.112Z,6.50
2019-01-31T14:22:12.113Z,6.50
2019-01-31T14:24:45.305Z,6.40
2019-01-31T14:27:15.277Z,6.30
2019-01-31T14:29:45.562Z,6.30
2019-01-31T14:32:17.103Z,6.40
2019-01-31T14:34:46.981Z,6.40
2019-01-31T14:37:17.247Z,6.40
2019-01-31T14:39:46.999Z,6.30
2019-01-31T14:42:17.446Z,6.30
2019-01-31T14:44:48.421Z,6.20
2019-01-31T14:47:18.656Z,6.10
2019-01-31T14:49:47.632Z,5.90
2019-01-31T14:52:16.617Z,5.90
2019-01-31T14:54:46.048Z,5.80
2019-01-31T14:57:15.065Z,5.60
2019-01-31T14:59:44.406Z,5.60
2019-01-31T15:02:13.758Z,5.60
2019-01-31T15:04:42.661Z,5.50
2019-01-31T15:07:11.654Z,5.50
2019-01-31T15:09:40.576Z,5.40
2019-01-31T15:12:09.573Z,5.00
2019-01-31T15:14:38.885Z,4.80
2019-01-31T15:17:07.989Z,4.60
2019-01-31T15:19:36.968Z,4.50
2019-01-31T15:22:05.953Z,4.20
2019-01-31T15:24:34.948Z,3.90
2019-01-31T15:27:03.937Z,3.90
2019-01-31T15:29:32.969Z,3.70
2019-01-31T15:32:01.977Z,3.60
2019-01-31T15:34:30.881Z,3.60
2019-01-31T15:37:02.098Z,3.40
2019-01-31T15:39:30.627Z,3.40
2019-01-31T15:42:01.238Z,3.10
2019-01-31T15:44:42.845Z,3.10
2019-01-31T15:47:03.553Z,3.10
2019-01-31T15:49:32.537Z,3.00
2019-01-31T15:52:01.470Z,2.90
2019-01-31T15:54:30.641Z,2.90
2019-01-31T15:56:59.559Z,2.90
2019-01-31T15:59:28.487Z,2.80
2019-01-31T16:01:57.538Z,2.70
2019-01-31T16:04:26.453Z,2.60
2019-01-31T16:06:55.308Z,2.70
2019-01-31T16:09:24.383Z,2.70
2019-01-31T16:11:53.554Z,2.70
2019-01-31T16:14:22.468Z,2.70
2019-01-31T16:16:51.492Z,2.60
2019-01-31T16:19:20.782Z,2.50
2019-01-31T16:21:49.881Z,2.60
2019-01-31T16:24:19.119Z,2.50
2019-01-31T16:26:48.540Z,2.40
2019-01-31T16:29:18.170Z,2.30
2019-01-31T16:31:47.177Z,2.30
2019-01-31T16:34:16.174Z,2.10
2019-01-31T16:36:45.184Z,2.10
2019-01-31T16:39:14.245Z,2.00
2019-01-31T16:41:43.242Z,1.90
2019-01-31T16:44:12.776Z,1.90
2019-01-31T16:46:41.761Z,1.90
2019-01-31T16:49:10.753Z,1.90
2019-01-31T16:51:39.875Z,1.80
2019-01-31T16:54:08.860Z,1.80
2019-01-31T16:56:37.858Z,1.70
2019-01-31T16:59:06.860Z,1.70
2019-01-31T17:01:35.785Z,1.60
2019-01-31T17:04:05.399Z,1.60
2019-01-31T17:06:34.392Z,1.70
2019-01-31T17:09:05.906Z,1.70
2019-01-31T17:11:34.906Z,1.60
2019-01-31T17:14:04.230Z,1.60
2019-01-31T17:16:33.244Z,1.60
2019-01-31T17:19:02.254Z,1.40
2019-01-31T17:21:31.285Z,1.40
2019-01-31T17:24:00.203Z,1.40
2019-01-31T17:26:29.200Z,1.40
2019-01-31T17:28:58.173Z,1.40
2019-01-31T17:31:27.289Z,1.40
2019-01-31T17:33:56.210Z,1.40
2019-01-31T17:36:25.221Z,1.50
2019-01-31T17:38:54.361Z,1.50
2019-01-31T17:41:23.786Z,1.50
2019-01-31T17:43:52.799Z,1.40
2019-01-31T17:46:21.820Z,1.40
2019-01-31T17:48:50.862Z,1.40
2019-01-31T17:51:19.993Z,1.40
2019-01-31T17:53:49.251Z,1.40
2019-01-31T17:56:18.430Z,1.40
2019-01-31T17:58:47.646Z,1.40
2019-01-31T18:01:16.711Z,1.50
2019-01-31T18:03:45.630Z,1.50
2019-01-31T18:06:14.568Z,1.50
2019-01-31T18:08:43.604Z,1.50
2019-01-31T18:11:12.597Z,1.50
2019-01-31T18:13:41.810Z,1.50
2019-01-31T18:16:10.832Z,1.50
2019-01-31T18:18:40.106Z,1.60
2019-01-31T18:21:09.113Z,1.50
2019-01-31T18:23:38.110Z,1.50
2019-01-31T18:26:07.347Z,1.40
2019-01-31T18:28:36.353Z,1.50
2019-01-31T18:31:05.374Z,1.50
2019-01-31T18:33:34.303Z,1.50
2019-01-31T18:36:03.309Z,1.50
2019-01-31T18:38:32.305Z,1.60
2019-01-31T18:41:01.230Z,1.60
2019-01-31T18:43:30.097Z,1.70
2019-01-31T18:45:59.456Z,1.70
2019-01-31T18:48:29.652Z,1.80
2019-01-31T18:50:58.740Z,1.80
2019-01-31T18:53:27.654Z,1.90
2019-01-31T18:55:56.646Z,1.90
2019-01-31T18:58:25.758Z,1.90
2019-01-31T19:00:55.355Z,1.90
2019-01-31T19:03:24.916Z,2.00
2019-01-31T19:05:54.226Z,2.00
2019-01-31T19:08:23.429Z,2.10
2019-01-31T19:10:52.765Z,2.10
2019-01-31T19:13:22.027Z,2.10
2019-01-31T19:15:51.088Z,2.20
2019-01-31T19:18:20.009Z,2.10
2019-01-31T19:20:49.036Z,2.10
2019-01-31T19:23:18.205Z,2.20
2019-01-31T19:25:47.410Z,2.10
2019-01-31T19:28:16.491Z,2.20
2019-01-31T19:30:45.505Z,2.20
2019-01-31T19:33:14.586Z,2.30
2019-01-31T19:35:43.687Z,2.30
2019-01-31T19:38:12.681Z,2.30
2019-01-31T19:40:43.777Z,2.30
2019-01-31T19:43:12.815Z,2.30
2019-01-31T19:45:46.633Z,2.30
2019-01-31T19:48:18.009Z,2.50
2019-01-31T19:50:47.179Z,2.30
2019-01-31T19:53:16.647Z,2.40
2019-01-31T19:55:45.665Z,2.40
2019-01-31T19:58:14.667Z,2.40
2019-01-31T20:00:43.658Z,2.50
2019-01-31T20:03:12.745Z,2.40
2019-01-31T20:05:41.996Z,2.40
2019-01-31T20:08:11.940Z,2.50
2019-01-31T20:10:41.666Z,2.50
2019-01-31T20:13:10.766Z,2.60
2019-01-31T20:15:39.743Z,2.60
2019-01-31T20:18:09.215Z,2.60
2019-01-31T20:20:38.275Z,2.60
2019-01-31T20:23:07.738Z,2.50
2019-01-31T20:25:37.297Z,2.60
2019-01-31T20:28:06.312Z,2.60
2019-01-31T20:30:35.693Z,2.50
2019-01-31T20:33:06.440Z,2.60
2019-01-31T20:35:35.751Z,2.60
2019-01-31T20:38:05.357Z,2.60
2019-01-31T20:40:39.316Z,2.60
2019-01-31T20:43:08.382Z,2.60
2019-01-31T20:45:37.370Z,2.70
2019-01-31T20:48:07.538Z,2.70
2019-01-31T20:50:37.719Z,2.70
2019-01-31T20:53:07.005Z,2.70
2019-01-31T20:55:36.191Z,2.80
2019-01-31T20:58:05.871Z,2.60
2019-01-31T21:00:44.133Z,2.60
2019-01-31T21:03:13.184Z,2.60
2019-01-31T21:05:43.019Z,2.70
2019-01-31T21:08:13.922Z,2.80
2019-01-31T21:10:43.231Z,2.80
2019-01-31T21:13:12.471Z,2.90
2019-01-31T21:15:41.831Z,2.90
2019-01-31T21:18:10.846Z,2.80
2019-01-31T21:20:39.870Z,2.80
2019-01-31T21:23:09.895Z,2.80
2019-01-31T21:25:39.002Z,2.80
2019-01-31T21:28:08.212Z,2.90
2019-01-31T21:30:40.087Z,2.80
2019-01-31T21:33:09.381Z,2.90
2019-01-31T21:35:38.409Z,2.80
2019-01-31T21:38:07.551Z,2.80
2019-01-31T21:40:38.474Z,2.80
2019-01-31T21:43:07.566Z,2.70
2019-01-31T21:45:37.207Z,2.70
2019-01-31T21:48:08.829Z,2.60
2019-01-31T21:50:38.148Z,2.70
2019-01-31T21:53:07.604Z,2.60
2019-01-31T21:55:36.796Z,2.70
2019-01-31T21:58:06.229Z,2.70
2019-01-31T22:00:36.185Z,2.70
2019-01-31T22:03:05.766Z,2.70
2019-01-31T22:05:34.946Z,2.70
2019-01-31T22:08:04.273Z,2.70
2019-01-31T22:10:33.295Z,2.70
2019-01-31T22:13:02.921Z,2.70
2019-01-31T22:15:33.101Z,2.80
2019-01-31T22:18:02.125Z,2.80
2019-01-31T22:20:31.139Z,2.90
2019-01-31T22:23:00.167Z,2.90
2019-01-31T22:25:29.208Z,2.80
2019-01-31T22:27:58.483Z,2.80
2019-01-31T22:30:33.711Z,2.90
2019-01-31T22:33:02.815Z,3.00
2019-01-31T22:35:31.829Z,3.00
2019-01-31T22:38:00.849Z,3.00
2019-01-31T22:40:30.328Z,3.00
2019-01-31T22:42:59.335Z,3.00
2019-01-31T22:45:28.348Z,2.90
2019-01-31T22:47:57.355Z,3.00
2019-01-31T22:50:26.475Z,3.00
2019-01-31T22:52:55.545Z,3.00
2019-01-31T22:55:25.487Z,3.00
2019-01-31T22:57:54.939Z,2.90
2019-01-31T23:01:09.235Z,2.90
2019-01-31T23:03:38.341Z,2.90
2019-01-31T23:06:10.814Z,2.80
2019-01-31T23:08:39.922Z,2.80
2019-01-31T23:11:08.931Z,2.90
2019-01-31T23:13:37.973Z,2.90
2019-01-31T23:16:07.110Z,2.90
2019-01-31T23:18:36.135Z,2.90
2019-01-31T23:21:05.961Z,3.00
2019-01-31T23:23:34.930Z,2.90
2019-01-31T23:26:04.535Z,2.80
2019-01-31T23:28:33.678Z,2.80
2019-01-31T23:31:02.751Z,2.90
2019-01-31T23:33:31.694Z,2.80
2019-01-31T23:36:00.794Z,2.80
2019-01-31T23:38:30.222Z,2.90
2019-01-31T23:40:59.256Z,2.90
2019-01-31T23:43:28.302Z,2.90
2019-01-31T23:45:57.385Z,2.80
2019-01-31T23:48:26.465Z,2.80
2019-01-31T23:50:55.501Z,2.70
2019-01-31T23:53:24.501Z,2.80
2019-01-31T23:55:53.510Z,2.80
2019-01-31T23:58:24.366Z,2.80
